sensor_id;sensor_type;location;lat;lon;timestamp;pressure;altitude;pressure_sealevel;temperature;humidity
41467;BME280;27205;53.690;19.948;2023-03-03T00:00:26;100210.10;;;-0.34;68.94
41467;BME280;27205;53.690;19.948;2023-03-03T00:05:50;100208.16;;;-0.37;69.23
41467;BME280;27205;53.690;19.948;2023-03-03T00:10:54;100202.06;;;-0.38;69.09
41467;BME280;27205;53.690;19.948;2023-03-03T00:16:12;100194.42;;;-0.40;68.93
41467;BME280;27205;53.690;19.948;2023-03-03T00:21:32;100187.24;;;-0.42;69.04
41467;BME280;27205;53.690;19.948;2023-03-03T00:26:51;100188.80;;;-0.48;69.65
41467;BME280;27205;53.690;19.948;2023-03-03T00:42:32;100192.83;;;-0.50;70.58
41467;BME280;27205;53.690;19.948;2023-03-03T00:47:43;100190.20;;;-0.50;70.65
41467;BME280;27205;53.690;19.948;2023-03-03T00:53:00;100188.95;;;-0.49;70.46
41467;BME280;27205;53.690;19.948;2023-03-03T00:58:04;100191.12;;;-0.46;70.52
41467;BME280;27205;53.690;19.948;2023-03-03T01:03:12;100177.36;;;-0.45;70.51
41467;BME280;27205;53.690;19.948;2023-03-03T01:08:17;100171.88;;;-0.48;70.88
41467;BME280;27205;53.690;19.948;2023-03-03T01:13:26;100170.09;;;-0.44;71.01
41467;BME280;27205;53.690;19.948;2023-03-03T01:18:30;100156.41;;;-0.44;71.10
41467;BME280;27205;53.690;19.948;2023-03-03T01:23:34;100142.96;;;-0.47;70.92
41467;BME280;27205;53.690;19.948;2023-03-03T01:28:37;100126.27;;;-0.51;71.42
41467;BME280;27205;53.690;19.948;2023-03-03T01:33:41;100120.02;;;-0.53;71.86
41467;BME280;27205;53.690;19.948;2023-03-03T01:38:45;100115.55;;;-0.54;71.88
41467;BME280;27205;53.690;19.948;2023-03-03T01:43:49;100117.39;;;-0.51;71.63
41467;BME280;27205;53.690;19.948;2023-03-03T01:48:57;100113.28;;;-0.49;71.86
41467;BME280;27205;53.690;19.948;2023-03-03T01:54:11;100123.70;;;-0.43;72.18
41467;BME280;27205;53.690;19.948;2023-03-03T01:59:22;100129.32;;;-0.37;72.78
41467;BME280;27205;53.690;19.948;2023-03-03T02:04:28;100123.73;;;-0.33;72.72
41467;BME280;27205;53.690;19.948;2023-03-03T02:09:36;100115.37;;;-0.30;72.87
41467;BME280;27205;53.690;19.948;2023-03-03T02:14:42;100113.66;;;-0.27;72.79
41467;BME280;27205;53.690;19.948;2023-03-03T02:20:11;100107.17;;;-0.29;73.18
41467;BME280;27205;53.690;19.948;2023-03-03T02:25:33;100097.83;;;-0.30;73.56
41467;BME280;27205;53.690;19.948;2023-03-03T02:30:39;100097.30;;;-0.32;73.57
41467;BME280;27205;53.690;19.948;2023-03-03T02:35:43;100090.49;;;-0.32;73.43
41467;BME280;27205;53.690;19.948;2023-03-03T02:41:02;100090.12;;;-0.34;73.93
41467;BME280;27205;53.690;19.948;2023-03-03T02:46:07;100091.83;;;-0.35;73.80
41467;BME280;27205;53.690;19.948;2023-03-03T02:51:11;100090.27;;;-0.36;74.24
41467;BME280;27205;53.690;19.948;2023-03-03T02:56:14;100089.66;;;-0.36;73.99
41467;BME280;27205;53.690;19.948;2023-03-03T03:01:18;100092.30;;;-0.39;74.53
41467;BME280;27205;53.690;19.948;2023-03-03T03:06:22;100093.23;;;-0.40;74.61
41467;BME280;27205;53.690;19.948;2023-03-03T03:11:25;100089.30;;;-0.43;74.63
41467;BME280;27205;53.690;19.948;2023-03-03T03:16:29;100081.89;;;-0.46;74.68
41467;BME280;27205;53.690;19.948;2023-03-03T03:21:34;100081.44;;;-0.52;75.13
41467;BME280;27205;53.690;19.948;2023-03-03T03:26:37;100079.44;;;-0.54;75.02
41467;BME280;27205;53.690;19.948;2023-03-03T03:31:42;100074.91;;;-0.57;75.46
41467;BME280;27205;53.690;19.948;2023-03-03T03:36:45;100073.36;;;-0.58;75.34
41467;BME280;27205;53.690;19.948;2023-03-03T03:41:49;100072.19;;;-0.55;75.44
41467;BME280;27205;53.690;19.948;2023-03-03T03:46:52;100055.42;;;-0.54;75.35
41467;BME280;27205;53.690;19.948;2023-03-03T03:51:56;100052.94;;;-0.54;75.59
41467;BME280;27205;53.690;19.948;2023-03-03T03:57:00;100063.31;;;-0.57;75.56
41467;BME280;27205;53.690;19.948;2023-03-03T04:02:04;100063.79;;;-0.57;75.43
41467;BME280;27205;53.690;19.948;2023-03-03T04:07:07;100075.36;;;-0.58;75.67
41467;BME280;27205;53.690;19.948;2023-03-03T04:12:13;100075.23;;;-0.63;75.72
41467;BME280;27205;53.690;19.948;2023-03-03T04:17:21;100066.44;;;-0.67;75.98
41467;BME280;27205;53.690;19.948;2023-03-03T04:22:27;100059.42;;;-0.72;76.10
41467;BME280;27205;53.690;19.948;2023-03-03T04:27:35;100043.30;;;-0.78;76.38
41467;BME280;27205;53.690;19.948;2023-03-03T04:32:39;100036.36;;;-0.81;76.56
41467;BME280;27205;53.690;19.948;2023-03-03T04:37:42;100033.49;;;-0.84;76.52
41467;BME280;27205;53.690;19.948;2023-03-03T04:42:46;100027.48;;;-0.86;76.54
41467;BME280;27205;53.690;19.948;2023-03-03T04:47:50;100023.32;;;-0.89;76.99
41467;BME280;27205;53.690;19.948;2023-03-03T04:52:53;100030.89;;;-0.87;76.82
41467;BME280;27205;53.690;19.948;2023-03-03T04:57:57;100034.35;;;-0.83;77.26
41467;BME280;27205;53.690;19.948;2023-03-03T05:03:00;100039.10;;;-0.73;77.28
41467;BME280;27205;53.690;19.948;2023-03-03T05:08:05;100059.92;;;-0.60;77.46
41467;BME280;27205;53.690;19.948;2023-03-03T05:13:08;100054.48;;;-0.51;77.51
41467;BME280;27205;53.690;19.948;2023-03-03T05:18:12;100051.79;;;-0.40;77.65
41467;BME280;27205;53.690;19.948;2023-03-03T05:23:15;100051.67;;;-0.30;77.79
41467;BME280;27205;53.690;19.948;2023-03-03T05:28:19;100054.56;;;-0.21;77.75
41467;BME280;27205;53.690;19.948;2023-03-03T05:33:23;100056.52;;;-0.13;77.67
41467;BME280;27205;53.690;19.948;2023-03-03T05:38:26;100061.98;;;-0.07;78.00
41467;BME280;27205;53.690;19.948;2023-03-03T05:43:30;100056.70;;;-0.02;77.87
41467;BME280;27205;53.690;19.948;2023-03-03T05:48:34;100053.34;;;0.01;78.16
41467;BME280;27205;53.690;19.948;2023-03-03T05:53:38;100067.46;;;0.08;78.24
41467;BME280;27205;53.690;19.948;2023-03-03T05:58:41;100075.00;;;0.14;78.18
41467;BME280;27205;53.690;19.948;2023-03-03T06:03:45;100075.90;;;0.18;78.07
41467;BME280;27205;53.690;19.948;2023-03-03T06:08:48;100072.96;;;0.18;78.12
41467;BME280;27205;53.690;19.948;2023-03-03T06:13:52;100077.68;;;0.18;78.28
41467;BME280;27205;53.690;19.948;2023-03-03T06:18:55;100075.14;;;0.16;78.55
41467;BME280;27205;53.690;19.948;2023-03-03T06:23:59;100078.45;;;0.17;78.64
41467;BME280;27205;53.690;19.948;2023-03-03T06:29:02;100075.55;;;0.23;78.74
41467;BME280;27205;53.690;19.948;2023-03-03T06:34:06;100063.37;;;0.30;79.01
41467;BME280;27205;53.690;19.948;2023-03-03T06:39:10;100065.02;;;0.36;79.49
41467;BME280;27205;53.690;19.948;2023-03-03T06:44:13;100078.73;;;0.44;79.53
41467;BME280;27205;53.690;19.948;2023-03-03T06:49:17;100084.02;;;0.52;79.65
41467;BME280;27205;53.690;19.948;2023-03-03T06:54:28;100086.45;;;0.59;79.74
41467;BME280;27205;53.690;19.948;2023-03-03T06:59:33;100092.59;;;0.63;80.18
41467;BME280;27205;53.690;19.948;2023-03-03T07:04:36;100094.56;;;0.69;80.37
41467;BME280;27205;53.690;19.948;2023-03-03T07:09:43;100097.66;;;0.76;80.96
41467;BME280;27205;53.690;19.948;2023-03-03T07:15:33;100103.54;;;0.88;81.02
41467;BME280;27205;53.690;19.948;2023-03-03T07:25:31;100114.64;;;1.01;81.49
41467;BME280;27205;53.690;19.948;2023-03-03T07:30:37;100115.29;;;1.00;81.58
41467;BME280;27205;53.690;19.948;2023-03-03T07:35:43;100117.34;;;1.04;81.92
41467;BME280;27205;53.690;19.948;2023-03-03T07:46:24;100122.21;;;1.13;82.35
41467;BME280;27205;53.690;19.948;2023-03-03T07:51:38;100124.91;;;1.29;82.17
41467;BME280;27205;53.690;19.948;2023-03-03T07:56:44;100120.30;;;1.40;81.91
41467;BME280;27205;53.690;19.948;2023-03-03T08:01:55;100121.45;;;1.48;82.30
41467;BME280;27205;53.690;19.948;2023-03-03T08:07:01;100128.30;;;1.61;82.23
41467;BME280;27205;53.690;19.948;2023-03-03T08:17:35;100124.35;;;1.79;82.18
41467;BME280;27205;53.690;19.948;2023-03-03T08:22:42;100117.33;;;1.94;82.08
41467;BME280;27205;53.690;19.948;2023-03-03T08:27:45;100114.27;;;2.08;82.25
41467;BME280;27205;53.690;19.948;2023-03-03T08:32:49;100109.82;;;2.16;82.23
41467;BME280;27205;53.690;19.948;2023-03-03T08:38:12;100097.88;;;2.36;82.33
41467;BME280;27205;53.690;19.948;2023-03-03T08:43:16;100094.23;;;2.60;82.02
41467;BME280;27205;53.690;19.948;2023-03-03T08:48:24;100090.38;;;2.83;82.00
41467;BME280;27205;53.690;19.948;2023-03-03T08:53:27;100085.34;;;3.04;81.91
41467;BME280;27205;53.690;19.948;2023-03-03T08:58:31;100083.27;;;3.19;81.57
41467;BME280;27205;53.690;19.948;2023-03-03T09:03:38;100086.00;;;3.23;81.52
41467;BME280;27205;53.690;19.948;2023-03-03T09:08:41;100095.02;;;3.31;81.54
41467;BME280;27205;53.690;19.948;2023-03-03T09:13:45;100092.35;;;3.49;81.35
41467;BME280;27205;53.690;19.948;2023-03-03T09:18:55;100087.42;;;3.66;81.19
41467;BME280;27205;53.690;19.948;2023-03-03T09:24:00;100088.46;;;3.76;81.11
41467;BME280;27205;53.690;19.948;2023-03-03T09:39:40;100089.05;;;4.14;80.89
41467;BME280;27205;53.690;19.948;2023-03-03T10:06:03;100081.25;;;4.67;80.40
41467;BME280;27205;53.690;19.948;2023-03-03T10:11:18;100090.36;;;4.93;80.09
41467;BME280;27205;53.690;19.948;2023-03-03T10:22:00;100086.17;;;5.33;79.65
41467;BME280;27205;53.690;19.948;2023-03-03T10:32:35;100068.16;;;5.50;78.89
41467;BME280;27205;53.690;19.948;2023-03-03T10:38:10;100065.45;;;5.70;78.94
41467;BME280;27205;53.690;19.948;2023-03-03T11:36:49;100035.55;;;8.06;75.31
41467;BME280;27205;53.690;19.948;2023-03-03T11:47:37;100018.88;;;8.49;75.01
41467;BME280;27205;53.690;19.948;2023-03-03T11:58:37;100018.92;;;8.01;72.92
41467;BME280;27205;53.690;19.948;2023-03-03T12:04:12;100007.09;;;7.74;73.08
41467;BME280;27205;53.690;19.948;2023-03-03T12:20:24;99994.52;;;8.30;72.23
41467;BME280;27205;53.690;19.948;2023-03-03T12:31:04;99985.89;;;8.38;71.46
41467;BME280;27205;53.690;19.948;2023-03-03T12:58:24;99955.71;;;7.76;69.03
41467;BME280;27205;53.690;19.948;2023-03-03T13:20:15;99944.20;;;8.59;68.76
41467;BME280;27205;53.690;19.948;2023-03-03T13:25:33;99949.68;;;8.94;68.43
41467;BME280;27205;53.690;19.948;2023-03-03T13:30:42;99936.27;;;9.09;67.79
41467;BME280;27205;53.690;19.948;2023-03-03T13:35:59;99930.45;;;8.96;67.37
41467;BME280;27205;53.690;19.948;2023-03-03T13:47:03;99925.67;;;8.85;66.95
41467;BME280;27205;53.690;19.948;2023-03-03T13:52:20;99921.30;;;8.84;66.76
41467;BME280;27205;53.690;19.948;2023-03-03T14:25:07;99904.37;;;9.82;65.01
41467;BME280;27205;53.690;19.948;2023-03-03T14:35:41;99878.93;;;9.47;64.37
41467;BME280;27205;53.690;19.948;2023-03-03T14:40:46;99878.28;;;9.66;63.92
41467;BME280;27205;53.690;19.948;2023-03-03T14:45:52;99864.33;;;9.83;63.68
41467;BME280;27205;53.690;19.948;2023-03-03T14:51:22;99858.67;;;9.88;63.57
41467;BME280;27205;53.690;19.948;2023-03-03T14:56:32;99848.45;;;9.91;63.44
41467;BME280;27205;53.690;19.948;2023-03-03T15:01:37;99851.69;;;9.91;63.42
41467;BME280;27205;53.690;19.948;2023-03-03T15:06:52;99849.64;;;9.92;63.72
41467;BME280;27205;53.690;19.948;2023-03-03T15:11:58;99847.35;;;9.79;63.78
41467;BME280;27205;53.690;19.948;2023-03-03T15:22:36;99841.73;;;9.38;64.05
41467;BME280;27205;53.690;19.948;2023-03-03T15:33:34;99827.59;;;8.62;63.70
41467;BME280;27205;53.690;19.948;2023-03-03T16:06:34;99808.59;;;6.46;65.23
41467;BME280;27205;53.690;19.948;2023-03-03T16:11:53;99802.70;;;6.05;66.08
41467;BME280;27205;53.690;19.948;2023-03-03T16:22:59;99785.83;;;5.37;67.20
41467;BME280;27205;53.690;19.948;2023-03-03T16:33:25;99777.42;;;4.78;68.18
41467;BME280;27205;53.690;19.948;2023-03-03T16:38:40;99778.54;;;4.57;68.82
41467;BME280;27205;53.690;19.948;2023-03-03T16:44:11;99776.27;;;4.35;68.94
41467;BME280;27205;53.690;19.948;2023-03-03T16:49:47;99776.52;;;4.17;69.45
41467;BME280;27205;53.690;19.948;2023-03-03T16:54:54;99770.61;;;4.00;69.98
41467;BME280;27205;53.690;19.948;2023-03-03T17:05:16;99760.21;;;3.73;70.72
41467;BME280;27205;53.690;19.948;2023-03-03T17:10:29;99748.89;;;3.62;70.99
41467;BME280;27205;53.690;19.948;2023-03-03T17:26:41;99754.87;;;3.45;72.63
41467;BME280;27205;53.690;19.948;2023-03-03T17:32:07;99744.78;;;3.40;73.04
41467;BME280;27205;53.690;19.948;2023-03-03T17:42:46;99723.59;;;3.25;74.50
41467;BME280;27205;53.690;19.948;2023-03-03T18:25:28;99713.36;;;2.89;76.86
41467;BME280;27205;53.690;19.948;2023-03-03T18:30:56;99707.81;;;2.81;77.00
41467;BME280;27205;53.690;19.948;2023-03-03T18:36:33;99705.85;;;2.71;77.32
41467;BME280;27205;53.690;19.948;2023-03-03T18:42:03;99695.81;;;2.65;77.25
41467;BME280;27205;53.690;19.948;2023-03-03T18:47:09;99693.27;;;2.61;77.19
41467;BME280;27205;53.690;19.948;2023-03-03T18:52:20;99693.64;;;2.58;77.54
41467;BME280;27205;53.690;19.948;2023-03-03T18:57:24;99691.86;;;2.54;77.80
41467;BME280;27205;53.690;19.948;2023-03-03T19:02:35;99695.90;;;2.51;77.88
41467;BME280;27205;53.690;19.948;2023-03-03T19:12:50;99696.23;;;2.45;78.21
41467;BME280;27205;53.690;19.948;2023-03-03T19:17:59;99686.46;;;2.42;78.48
41467;BME280;27205;53.690;19.948;2023-03-03T19:23:15;99676.71;;;2.37;78.57
41467;BME280;27205;53.690;19.948;2023-03-03T19:28:37;99677.15;;;2.31;78.97
41467;BME280;27205;53.690;19.948;2023-03-03T19:33:54;99670.19;;;2.29;78.78
41467;BME280;27205;53.690;19.948;2023-03-03T19:49:56;99643.71;;;2.30;79.11
41467;BME280;27205;53.690;19.948;2023-03-03T19:55:31;99647.28;;;2.40;79.16
41467;BME280;27205;53.690;19.948;2023-03-03T20:00:47;99648.00;;;2.53;79.28
41467;BME280;27205;53.690;19.948;2023-03-03T20:16:52;99611.00;;;2.74;79.70
41467;BME280;27205;53.690;19.948;2023-03-03T20:22:45;99604.68;;;2.75;79.98
41467;BME280;27205;53.690;19.948;2023-03-03T20:28:05;99595.09;;;2.73;80.06
41467;BME280;27205;53.690;19.948;2023-03-03T20:33:39;99594.45;;;2.74;80.25
41467;BME280;27205;53.690;19.948;2023-03-03T20:50:03;99561.45;;;2.79;80.28
41467;BME280;27205;53.690;19.948;2023-03-03T20:55:33;99545.65;;;2.81;80.39
41467;BME280;27205;53.690;19.948;2023-03-03T21:00:59;99536.64;;;2.81;80.49
41467;BME280;27205;53.690;19.948;2023-03-03T21:06:09;99527.65;;;2.80;80.73
41467;BME280;27205;53.690;19.948;2023-03-03T21:16:33;99504.79;;;2.80;80.95
41467;BME280;27205;53.690;19.948;2023-03-03T21:21:40;99495.64;;;2.83;81.11
41467;BME280;27205;53.690;19.948;2023-03-03T21:26:58;99525.74;;;2.84;81.22
41467;BME280;27205;53.690;19.948;2023-03-03T21:32:08;99526.14;;;2.84;81.43
41467;BME280;27205;53.690;19.948;2023-03-03T21:37:45;99530.11;;;2.86;81.52
41467;BME280;27205;53.690;19.948;2023-03-03T21:42:55;99520.78;;;2.86;81.57
41467;BME280;27205;53.690;19.948;2023-03-03T21:47:59;99501.27;;;2.88;81.65
41467;BME280;27205;53.690;19.948;2023-03-03T21:53:04;99503.67;;;2.88;81.62
41467;BME280;27205;53.690;19.948;2023-03-03T21:58:07;99502.37;;;2.87;81.73
41467;BME280;27205;53.690;19.948;2023-03-03T22:03:12;99502.67;;;2.87;81.71
41467;BME280;27205;53.690;19.948;2023-03-03T22:08:22;99481.27;;;2.88;81.77
41467;BME280;27205;53.690;19.948;2023-03-03T22:13:25;99485.71;;;2.90;81.81
41467;BME280;27205;53.690;19.948;2023-03-03T22:18:29;99481.86;;;2.92;81.75
41467;BME280;27205;53.690;19.948;2023-03-03T22:23:33;99471.05;;;2.95;81.55
41467;BME280;27205;53.690;19.948;2023-03-03T22:28:36;99443.27;;;2.94;81.68
41467;BME280;27205;53.690;19.948;2023-03-03T22:33:40;99439.58;;;2.95;81.57
41467;BME280;27205;53.690;19.948;2023-03-03T22:38:45;99409.33;;;2.93;81.66
41467;BME280;27205;53.690;19.948;2023-03-03T22:43:48;99396.13;;;2.93;81.74
41467;BME280;27205;53.690;19.948;2023-03-03T22:48:52;99396.00;;;2.89;81.73
41467;BME280;27205;53.690;19.948;2023-03-03T22:53:56;99391.15;;;2.88;81.84
41467;BME280;27205;53.690;19.948;2023-03-03T22:59:00;99379.84;;;2.89;81.81
41467;BME280;27205;53.690;19.948;2023-03-03T23:04:04;99364.34;;;2.90;81.68
41467;BME280;27205;53.690;19.948;2023-03-03T23:09:07;99352.63;;;2.92;81.60
41467;BME280;27205;53.690;19.948;2023-03-03T23:14:11;99346.17;;;2.92;81.70
41467;BME280;27205;53.690;19.948;2023-03-03T23:19:14;99342.31;;;2.94;81.61
41467;BME280;27205;53.690;19.948;2023-03-03T23:24:19;99345.52;;;2.96;81.51
41467;BME280;27205;53.690;19.948;2023-03-03T23:29:23;99348.30;;;2.97;81.68
41467;BME280;27205;53.690;19.948;2023-03-03T23:34:26;99346.56;;;2.97;81.63
41467;BME280;27205;53.690;19.948;2023-03-03T23:39:30;99333.09;;;3.01;81.47
41467;BME280;27205;53.690;19.948;2023-03-03T23:44:34;99326.89;;;3.06;81.54
41467;BME280;27205;53.690;19.948;2023-03-03T23:49:39;99326.61;;;3.07;81.55
41467;BME280;27205;53.690;19.948;2023-03-03T23:54:44;99325.87;;;3.09;81.52
41467;BME280;27205;53.690;19.948;2023-03-03T23:59:47;99315.00;;;3.10;81.49
